NKS1630 KACY-KMYR
Flight info
| Callsign | NKS1630 |
|---|---|
| Flight time | 1h 17m |
| Altitude | 36000 |
| Route | LEEAH ATR TRPOD Q409 CRPLR PAACK WYLMS |
| Aircraft | A321/M-SDE3FGHIRWY/LB1 |
Departure
| Time | 2026-05-07 20:44 |
|---|---|
| Airport | Atlantic City International Airport (KACY) |
Arrival
| Time | 2026-05-07 22:01 |
|---|---|
| Airport | Myrtle Beach International Airport (KMYR) |
| Time | Latitude | Longitude | Altitude | Speed | Heading |
|---|---|---|---|---|---|
| 2026-05-07 20:14 | 39.45215 | -74.57231 | 74 ft | 0 kts | 175° |
| 2026-05-07 20:16 | 39.45210 | -74.57230 | 74 ft | 0 kts | 175° |
| 2026-05-07 20:16 | 39.45214 | -74.57231 | 76 ft | 0 kts | 175° |
| 2026-05-07 20:16 | 39.45218 | -74.57231 | 74 ft | 0 kts | 175° |
| 2026-05-07 20:33 | 39.45219 | -74.57231 | 58 ft | 2 kts | 175° |
| 2026-05-07 20:33 | 39.45238 | -74.57234 | 68 ft | 3 kts | 175° |
| 2026-05-07 20:33 | 39.45256 | -74.57236 | 68 ft | 3 kts | 175° |
| 2026-05-07 20:33 | 39.45275 | -74.57238 | 70 ft | 3 kts | 175° |
| 2026-05-07 20:34 | 39.45293 | -74.57240 | 64 ft | 3 kts | 175° |
| 2026-05-07 20:34 | 39.45301 | -74.57241 | 69 ft | 0 kts | 175° |
| 2026-05-07 20:36 | 39.45302 | -74.57241 | 69 ft | 0 kts | 175° |
| 2026-05-07 20:37 | 39.45301 | -74.57241 | 69 ft | 1 kts | 176° |
| 2026-05-07 20:37 | 39.45293 | -74.57244 | 64 ft | 2 kts | 198° |
| 2026-05-07 20:37 | 39.45268 | -74.57267 | 70 ft | 9 kts | 224° |
| 2026-05-07 20:37 | 39.45250 | -74.57380 | 65 ft | 16 kts | 315° |
| 2026-05-07 20:38 | 39.45353 | -74.57426 | 68 ft | 16 kts | 27° |
| 2026-05-07 20:38 | 39.45418 | -74.57318 | 68 ft | 15 kts | 56° |
| 2026-05-07 20:38 | 39.45490 | -74.57246 | 75 ft | 13 kts | 350° |
| 2026-05-07 20:38 | 39.45543 | -74.57337 | 67 ft | 14 kts | 298° |
| 2026-05-07 20:39 | 39.45593 | -74.57458 | 69 ft | 17 kts | 298° |
| 2026-05-07 20:39 | 39.45649 | -74.57595 | 72 ft | 18 kts | 298° |
| 2026-05-07 20:39 | 39.45711 | -74.57741 | 69 ft | 20 kts | 298° |
| 2026-05-07 20:39 | 39.45765 | -74.57875 | 65 ft | 15 kts | 298° |
| 2026-05-07 20:40 | 39.45813 | -74.57991 | 68 ft | 15 kts | 298° |
| 2026-05-07 20:40 | 39.45863 | -74.58112 | 67 ft | 15 kts | 298° |
| 2026-05-07 20:40 | 39.45912 | -74.58232 | 71 ft | 15 kts | 298° |
| 2026-05-07 20:40 | 39.45962 | -74.58351 | 70 ft | 16 kts | 298° |
| 2026-05-07 20:41 | 39.46017 | -74.58484 | 75 ft | 17 kts | 298° |
| 2026-05-07 20:41 | 39.46071 | -74.58618 | 69 ft | 17 kts | 297° |
| 2026-05-07 20:41 | 39.46126 | -74.58753 | 66 ft | 17 kts | 298° |
| 2026-05-07 20:41 | 39.46168 | -74.58853 | 65 ft | 12 kts | 298° |
| 2026-05-07 20:42 | 39.46208 | -74.58948 | 63 ft | 13 kts | 298° |
| 2026-05-07 20:42 | 39.46252 | -74.59056 | 67 ft | 14 kts | 297° |
| 2026-05-07 20:42 | 39.46319 | -74.59132 | 66 ft | 13 kts | 4° |
| 2026-05-07 20:42 | 39.46389 | -74.59072 | 65 ft | 11 kts | 62° |
| 2026-05-07 20:43 | 39.46373 | -74.58970 | 70 ft | 15 kts | 117° |
| 2026-05-07 20:43 | 39.46225 | -74.58613 | 66 ft | 86 kts | 118° |
| 2026-05-07 20:43 | 39.45833 | -74.57661 | 69 ft | 154 kts | 118° |
| 2026-05-07 20:43 | 39.45255 | -74.56251 | 328 ft | 191 kts | 117° |
| 2026-05-07 20:44 | 39.44626 | -74.54716 | 1222 ft | 192 kts | 116° |
| 2026-05-07 20:44 | 39.44015 | -74.53241 | 2085 ft | 179 kts | 119° |
| 2026-05-07 20:44 | 39.43128 | -74.52096 | 2490 ft | 189 kts | 154° |
| 2026-05-07 20:44 | 39.41835 | -74.51768 | 2866 ft | 195 kts | 191° |
| 2026-05-07 20:45 | 39.40625 | -74.52513 | 3161 ft | 206 kts | 227° |
| 2026-05-07 20:45 | 39.39888 | -74.54111 | 3482 ft | 215 kts | 248° |
| 2026-05-07 20:45 | 39.39277 | -74.55963 | 3722 ft | 235 kts | 250° |
| 2026-05-07 20:45 | 39.38615 | -74.58026 | 4029 ft | 255 kts | 249° |
| 2026-05-07 20:46 | 39.37932 | -74.60146 | 4687 ft | 261 kts | 250° |
| 2026-05-07 20:46 | 39.37216 | -74.62339 | 5406 ft | 266 kts | 250° |
| 2026-05-07 20:46 | 39.36484 | -74.64532 | 6280 ft | 263 kts | 250° |
| 2026-05-07 20:46 | 39.35749 | -74.66702 | 7014 ft | 263 kts | 249° |
| 2026-05-07 20:47 | 39.35022 | -74.68854 | 7824 ft | 261 kts | 249° |
| 2026-05-07 20:47 | 39.34301 | -74.70997 | 8661 ft | 258 kts | 249° |
| 2026-05-07 20:47 | 39.33599 | -74.73083 | 9503 ft | 255 kts | 249° |
| 2026-05-07 20:47 | 39.32891 | -74.75183 | 10246 ft | 255 kts | 249° |
| 2026-05-07 20:48 | 39.32150 | -74.77382 | 10414 ft | 277 kts | 248° |
| 2026-05-07 20:48 | 39.31354 | -74.79755 | 10563 ft | 296 kts | 249° |
| 2026-05-07 20:48 | 39.30803 | -74.81395 | 10851 ft | 302 kts | 248° |
| 2026-05-07 20:48 | 39.29686 | -74.84702 | 11682 ft | 304 kts | 248° |
| 2026-05-07 20:49 | 39.28833 | -74.87213 | 12355 ft | 305 kts | 247° |
| 2026-05-07 20:49 | 39.27981 | -74.89725 | 13040 ft | 306 kts | 247° |
| 2026-05-07 20:49 | 39.27415 | -74.91392 | 13492 ft | 306 kts | 246° |
| 2026-05-07 20:49 | 39.26330 | -74.93786 | 14064 ft | 310 kts | 234° |
| 2026-05-07 20:50 | 39.24791 | -74.95764 | 14619 ft | 317 kts | 221° |
| 2026-05-07 20:50 | 39.22846 | -74.97204 | 15216 ft | 325 kts | 210° |
| 2026-05-07 20:50 | 39.20794 | -74.98373 | 15833 ft | 326 kts | 211° |
| 2026-05-07 20:50 | 39.18713 | -74.99558 | 16460 ft | 327 kts | 211° |
| 2026-05-07 20:51 | 39.16640 | -75.00744 | 17053 ft | 328 kts | 211° |
| 2026-05-07 20:51 | 39.14547 | -75.01943 | 17684 ft | 328 kts | 211° |
| 2026-05-07 20:51 | 39.12449 | -75.03145 | 18282 ft | 330 kts | 211° |
| 2026-05-07 20:51 | 39.10378 | -75.04336 | 18804 ft | 330 kts | 212° |
| 2026-05-07 20:52 | 39.08279 | -75.05543 | 19362 ft | 330 kts | 212° |
| 2026-05-07 20:52 | 39.06175 | -75.06750 | 19884 ft | 331 kts | 212° |
| 2026-05-07 20:52 | 39.04066 | -75.07959 | 20400 ft | 332 kts | 212° |
| 2026-05-07 20:52 | 39.01948 | -75.09171 | 20957 ft | 332 kts | 212° |
| 2026-05-07 20:53 | 38.99829 | -75.10381 | 21485 ft | 332 kts | 212° |
| 2026-05-07 20:53 | 38.97714 | -75.11588 | 22000 ft | 333 kts | 212° |
| 2026-05-07 20:53 | 38.95612 | -75.12787 | 22499 ft | 333 kts | 212° |
| 2026-05-07 20:53 | 38.93488 | -75.14001 | 22993 ft | 334 kts | 212° |
| 2026-05-07 20:54 | 38.91364 | -75.15215 | 23487 ft | 334 kts | 212° |
| 2026-05-07 20:54 | 38.89223 | -75.16434 | 23875 ft | 335 kts | 213° |
| 2026-05-07 20:54 | 38.87111 | -75.17635 | 24243 ft | 336 kts | 213° |
| 2026-05-07 20:54 | 38.84957 | -75.18860 | 24540 ft | 338 kts | 213° |
| 2026-05-07 20:55 | 38.82801 | -75.20089 | 24893 ft | 339 kts | 213° |
| 2026-05-07 20:55 | 38.80641 | -75.21333 | 25237 ft | 339 kts | 214° |
| 2026-05-07 20:55 | 38.78548 | -75.22664 | 25574 ft | 338 kts | 216° |
| 2026-05-07 20:55 | 38.76471 | -75.24088 | 25912 ft | 339 kts | 217° |
| 2026-05-07 20:56 | 38.74403 | -75.25554 | 26249 ft | 339 kts | 218° |
| 2026-05-07 20:56 | 38.72332 | -75.27031 | 26583 ft | 341 kts | 218° |
| 2026-05-07 20:56 | 38.70248 | -75.28506 | 26912 ft | 342 kts | 218° |
| 2026-05-07 20:56 | 38.68152 | -75.29971 | 27232 ft | 344 kts | 218° |
| 2026-05-07 20:57 | 38.66040 | -75.31432 | 27546 ft | 346 kts | 218° |
| 2026-05-07 20:57 | 38.63915 | -75.32891 | 27802 ft | 347 kts | 218° |
| 2026-05-07 20:57 | 38.61803 | -75.34340 | 28075 ft | 350 kts | 218° |
| 2026-05-07 20:57 | 38.59654 | -75.35812 | 28358 ft | 351 kts | 218° |
| 2026-05-07 20:58 | 38.57489 | -75.37292 | 28647 ft | 353 kts | 218° |
| 2026-05-07 20:58 | 38.55313 | -75.38781 | 28933 ft | 354 kts | 218° |
| 2026-05-07 20:58 | 38.53134 | -75.40272 | 29222 ft | 356 kts | 218° |
| 2026-05-07 20:58 | 38.50973 | -75.41748 | 29497 ft | 357 kts | 218° |
| 2026-05-07 20:59 | 38.48776 | -75.43247 | 29853 ft | 358 kts | 219° |
| 2026-05-07 20:59 | 38.46574 | -75.44748 | 30161 ft | 358 kts | 219° |
| 2026-05-07 20:59 | 38.44365 | -75.46255 | 30435 ft | 358 kts | 219° |
| 2026-05-07 20:59 | 38.42162 | -75.47757 | 30652 ft | 359 kts | 219° |
| 2026-05-07 21:00 | 38.39952 | -75.49262 | 30907 ft | 360 kts | 219° |
| 2026-05-07 21:00 | 38.37768 | -75.50748 | 31180 ft | 360 kts | 219° |
| 2026-05-07 21:00 | 38.35555 | -75.52250 | 31503 ft | 359 kts | 219° |
| 2026-05-07 21:00 | 38.33389 | -75.53813 | 31811 ft | 351 kts | 224° |
| 2026-05-07 21:01 | 38.31406 | -75.55548 | 32116 ft | 349 kts | 225° |
| 2026-05-07 21:01 | 38.29380 | -75.57322 | 32425 ft | 348 kts | 225° |
| 2026-05-07 21:01 | 38.27407 | -75.59046 | 32727 ft | 348 kts | 225° |
| 2026-05-07 21:01 | 38.25398 | -75.60799 | 33026 ft | 347 kts | 225° |
| 2026-05-07 21:02 | 38.23409 | -75.62531 | 33323 ft | 346 kts | 225° |
| 2026-05-07 21:02 | 38.21447 | -75.64241 | 33507 ft | 347 kts | 225° |
| 2026-05-07 21:02 | 38.19446 | -75.65985 | 33753 ft | 347 kts | 225° |
| 2026-05-07 21:02 | 38.17453 | -75.67721 | 34009 ft | 347 kts | 225° |
| 2026-05-07 21:03 | 38.15459 | -75.69452 | 34250 ft | 346 kts | 225° |
| 2026-05-07 21:03 | 38.13462 | -75.71185 | 34487 ft | 346 kts | 225° |
| 2026-05-07 21:03 | 38.11502 | -75.72880 | 34733 ft | 345 kts | 225° |
| 2026-05-07 21:03 | 38.09515 | -75.74598 | 34991 ft | 344 kts | 225° |
| 2026-05-07 21:04 | 38.07535 | -75.76310 | 35242 ft | 343 kts | 225° |
| 2026-05-07 21:04 | 38.05560 | -75.78019 | 35482 ft | 342 kts | 225° |
| 2026-05-07 21:04 | 38.03588 | -75.79729 | 35732 ft | 342 kts | 225° |
| 2026-05-07 21:05 | 37.99664 | -75.83131 | 35890 ft | 346 kts | 225° |
| 2026-05-07 21:05 | 37.95658 | -75.86593 | 35902 ft | 349 kts | 225° |
| 2026-05-07 21:06 | 37.91635 | -75.90054 | 35899 ft | 349 kts | 225° |
| 2026-05-07 21:06 | 37.87636 | -75.93492 | 35903 ft | 349 kts | 225° |
| 2026-05-07 21:07 | 37.83611 | -75.96954 | 35919 ft | 349 kts | 225° |
| 2026-05-07 21:07 | 37.79582 | -76.00419 | 35889 ft | 350 kts | 225° |
| 2026-05-07 21:08 | 37.75557 | -76.03880 | 35904 ft | 352 kts | 225° |
| 2026-05-07 21:08 | 37.71525 | -76.07330 | 35915 ft | 353 kts | 225° |
| 2026-05-07 21:09 | 37.67481 | -76.10781 | 35922 ft | 353 kts | 225° |
| 2026-05-07 21:09 | 37.63402 | -76.14259 | 35925 ft | 353 kts | 225° |
| 2026-05-07 21:10 | 37.59213 | -76.17569 | 35947 ft | 361 kts | 220° |
| 2026-05-07 21:10 | 37.54790 | -76.20525 | 35937 ft | 361 kts | 220° |
| 2026-05-07 21:11 | 37.50333 | -76.23485 | 35939 ft | 361 kts | 220° |
| 2026-05-07 21:11 | 37.43686 | -76.27904 | 35936 ft | 361 kts | 220° |
| 2026-05-07 21:12 | 37.39243 | -76.30850 | 35935 ft | 361 kts | 220° |
| 2026-05-07 21:12 | 37.34811 | -76.33789 | 35885 ft | 362 kts | 220° |
| 2026-05-07 21:13 | 37.30339 | -76.36745 | 35905 ft | 362 kts | 220° |
| 2026-05-07 21:13 | 37.25868 | -76.39701 | 35921 ft | 363 kts | 220° |
| 2026-05-07 21:14 | 37.21416 | -76.42638 | 35931 ft | 363 kts | 220° |
| 2026-05-07 21:14 | 37.16934 | -76.45595 | 35873 ft | 364 kts | 220° |
| 2026-05-07 21:15 | 37.12466 | -76.48537 | 35910 ft | 365 kts | 220° |
| 2026-05-07 21:15 | 37.07948 | -76.51504 | 35969 ft | 366 kts | 220° |
| 2026-05-07 21:16 | 37.03433 | -76.54462 | 35962 ft | 365 kts | 220° |
| 2026-05-07 21:16 | 36.98922 | -76.57417 | 35958 ft | 365 kts | 220° |
| 2026-05-07 21:17 | 36.94423 | -76.60361 | 35879 ft | 365 kts | 220° |
| 2026-05-07 21:17 | 36.89941 | -76.63293 | 35897 ft | 366 kts | 220° |
| 2026-05-07 21:18 | 36.85415 | -76.66245 | 35905 ft | 367 kts | 220° |
| 2026-05-07 21:18 | 36.80903 | -76.69187 | 35913 ft | 368 kts | 220° |
| 2026-05-07 21:19 | 36.76349 | -76.72154 | 35927 ft | 368 kts | 220° |
| 2026-05-07 21:19 | 36.71799 | -76.75112 | 35888 ft | 368 kts | 220° |
| 2026-05-07 21:20 | 36.67271 | -76.78051 | 35903 ft | 369 kts | 220° |
| 2026-05-07 21:20 | 36.62702 | -76.81014 | 35917 ft | 369 kts | 220° |
| 2026-05-07 21:21 | 36.58148 | -76.83959 | 35923 ft | 370 kts | 220° |
| 2026-05-07 21:21 | 36.53606 | -76.86902 | 35967 ft | 370 kts | 220° |
| 2026-05-07 21:22 | 36.49070 | -76.89833 | 35882 ft | 368 kts | 220° |
| 2026-05-07 21:22 | 36.44515 | -76.92777 | 35892 ft | 369 kts | 220° |
| 2026-05-07 21:23 | 36.39986 | -76.95698 | 35914 ft | 370 kts | 220° |
| 2026-05-07 21:23 | 36.35403 | -76.98644 | 35918 ft | 370 kts | 220° |
| 2026-05-07 21:24 | 36.30820 | -77.01583 | 35931 ft | 370 kts | 220° |
| 2026-05-07 21:24 | 36.26262 | -77.04500 | 35884 ft | 371 kts | 220° |
| 2026-05-07 21:25 | 36.21664 | -77.07444 | 35897 ft | 371 kts | 220° |
| 2026-05-07 21:25 | 36.17061 | -77.10385 | 35910 ft | 372 kts | 220° |
| 2026-05-07 21:26 | 36.12483 | -77.13312 | 35920 ft | 373 kts | 220° |
| 2026-05-07 21:26 | 36.07845 | -77.16277 | 35908 ft | 373 kts | 220° |
| 2026-05-07 21:27 | 36.03234 | -77.19213 | 35872 ft | 374 kts | 220° |
| 2026-05-07 21:27 | 35.98631 | -77.22152 | 35888 ft | 375 kts | 220° |
| 2026-05-07 21:28 | 35.93973 | -77.25115 | 35915 ft | 376 kts | 219° |
| 2026-05-07 21:28 | 35.89239 | -77.27938 | 35917 ft | 378 kts | 218° |
| 2026-05-07 21:29 | 35.84468 | -77.30633 | 35910 ft | 378 kts | 217° |
| 2026-05-07 21:29 | 35.79671 | -77.33329 | 35864 ft | 378 kts | 217° |
| 2026-05-07 21:30 | 35.74909 | -77.36029 | 35869 ft | 378 kts | 217° |
| 2026-05-07 21:30 | 35.70107 | -77.38746 | 35883 ft | 378 kts | 217° |
| 2026-05-07 21:31 | 35.65353 | -77.41438 | 35888 ft | 379 kts | 217° |
| 2026-05-07 21:31 | 35.60550 | -77.44152 | 35890 ft | 379 kts | 217° |
| 2026-05-07 21:32 | 35.55748 | -77.46868 | 35850 ft | 381 kts | 217° |
| 2026-05-07 21:32 | 35.50940 | -77.49580 | 35866 ft | 382 kts | 217° |
| 2026-05-07 21:33 | 35.46085 | -77.52306 | 35858 ft | 383 kts | 217° |
| 2026-05-07 21:33 | 35.41254 | -77.55016 | 35859 ft | 383 kts | 217° |
| 2026-05-07 21:34 | 35.37223 | -77.57286 | 35864 ft | 383 kts | 217° |
| 2026-05-07 21:34 | 35.32379 | -77.60008 | 35879 ft | 383 kts | 217° |
| 2026-05-07 21:35 | 35.27555 | -77.62712 | 35882 ft | 383 kts | 217° |
| 2026-05-07 21:35 | 35.22719 | -77.65414 | 35883 ft | 383 kts | 217° |
| 2026-05-07 21:36 | 35.17854 | -77.68136 | 35737 ft | 386 kts | 217° |
| 2026-05-07 21:36 | 35.15409 | -77.69506 | 35513 ft | 387 kts | 217° |
| 2026-05-07 21:36 | 35.12986 | -77.70860 | 35273 ft | 388 kts | 217° |
| 2026-05-07 21:37 | 35.10533 | -77.72229 | 34989 ft | 390 kts | 217° |
| 2026-05-07 21:37 | 35.08049 | -77.73611 | 34749 ft | 392 kts | 217° |
| 2026-05-07 21:37 | 35.05547 | -77.74999 | 34512 ft | 393 kts | 217° |
| 2026-05-07 21:37 | 35.03055 | -77.76382 | 34277 ft | 394 kts | 216° |
| 2026-05-07 21:38 | 35.00593 | -77.77748 | 34049 ft | 394 kts | 216° |
| 2026-05-07 21:38 | 34.98082 | -77.79141 | 33808 ft | 395 kts | 216° |
| 2026-05-07 21:38 | 34.95578 | -77.80530 | 33545 ft | 396 kts | 216° |
| 2026-05-07 21:38 | 34.93061 | -77.81929 | 33272 ft | 397 kts | 216° |
| 2026-05-07 21:39 | 34.90564 | -77.83311 | 33016 ft | 399 kts | 216° |
| 2026-05-07 21:39 | 34.88031 | -77.84714 | 32715 ft | 401 kts | 216° |
| 2026-05-07 21:39 | 34.85479 | -77.86132 | 32043 ft | 403 kts | 216° |
| 2026-05-07 21:39 | 34.82917 | -77.87558 | 31303 ft | 405 kts | 216° |
| 2026-05-07 21:40 | 34.80336 | -77.88988 | 30544 ft | 408 kts | 216° |
| 2026-05-07 21:40 | 34.77730 | -77.90426 | 29681 ft | 412 kts | 216° |
| 2026-05-07 21:40 | 34.75106 | -77.91874 | 28762 ft | 415 kts | 216° |
| 2026-05-07 21:40 | 34.72502 | -77.93305 | 28183 ft | 411 kts | 216° |
| 2026-05-07 21:41 | 34.69904 | -77.94723 | 27689 ft | 405 kts | 216° |
| 2026-05-07 21:41 | 34.67371 | -77.96107 | 27182 ft | 399 kts | 216° |
| 2026-05-07 21:41 | 34.64846 | -77.97490 | 26613 ft | 394 kts | 216° |
| 2026-05-07 21:41 | 34.62368 | -77.98850 | 26136 ft | 388 kts | 216° |
| 2026-05-07 21:42 | 34.59919 | -78.00198 | 25635 ft | 384 kts | 216° |
| 2026-05-07 21:42 | 34.57490 | -78.01536 | 25138 ft | 380 kts | 215° |
| 2026-05-07 21:42 | 34.55091 | -78.02854 | 24647 ft | 376 kts | 215° |
| 2026-05-07 21:42 | 34.52753 | -78.04140 | 24171 ft | 372 kts | 215° |
| 2026-05-07 21:43 | 34.50392 | -78.05439 | 23681 ft | 369 kts | 215° |
| 2026-05-07 21:43 | 34.48060 | -78.06719 | 23158 ft | 366 kts | 215° |
| 2026-05-07 21:43 | 34.45744 | -78.07989 | 22665 ft | 362 kts | 215° |
| 2026-05-07 21:43 | 34.43461 | -78.09243 | 22205 ft | 358 kts | 215° |
| 2026-05-07 21:44 | 34.41226 | -78.10468 | 21761 ft | 355 kts | 215° |
| 2026-05-07 21:44 | 34.38979 | -78.11695 | 21320 ft | 351 kts | 214° |
| 2026-05-07 21:44 | 34.36759 | -78.12908 | 20897 ft | 347 kts | 214° |
| 2026-05-07 21:44 | 34.34598 | -78.14090 | 20485 ft | 344 kts | 214° |
| 2026-05-07 21:45 | 34.32422 | -78.15280 | 20086 ft | 342 kts | 214° |
| 2026-05-07 21:45 | 34.30253 | -78.16463 | 19682 ft | 340 kts | 214° |
| 2026-05-07 21:45 | 34.28094 | -78.17644 | 19288 ft | 339 kts | 214° |
| 2026-05-07 21:45 | 34.25954 | -78.18812 | 18899 ft | 337 kts | 214° |
| 2026-05-07 21:46 | 34.23818 | -78.19977 | 18505 ft | 335 kts | 214° |
| 2026-05-07 21:46 | 34.21717 | -78.21119 | 18106 ft | 334 kts | 213° |
| 2026-05-07 21:46 | 34.19602 | -78.22266 | 17657 ft | 332 kts | 213° |
| 2026-05-07 21:46 | 34.17492 | -78.23413 | 17235 ft | 331 kts | 213° |
| 2026-05-07 21:47 | 34.15398 | -78.24553 | 16880 ft | 330 kts | 213° |
| 2026-05-07 21:47 | 34.13291 | -78.25703 | 16513 ft | 330 kts | 213° |
| 2026-05-07 21:47 | 34.11272 | -78.26907 | 16105 ft | 322 kts | 220° |
| 2026-05-07 21:47 | 34.09513 | -78.28511 | 15683 ft | 312 kts | 230° |
| 2026-05-07 21:48 | 34.08098 | -78.30440 | 15211 ft | 304 kts | 238° |
| 2026-05-07 21:48 | 34.06823 | -78.32481 | 14742 ft | 303 kts | 238° |
| 2026-05-07 21:48 | 34.05564 | -78.34480 | 14302 ft | 302 kts | 238° |
| 2026-05-07 21:48 | 34.04294 | -78.36489 | 13845 ft | 301 kts | 237° |
| 2026-05-07 21:49 | 34.03022 | -78.38492 | 13352 ft | 299 kts | 237° |
| 2026-05-07 21:49 | 34.01759 | -78.40478 | 12886 ft | 298 kts | 237° |
| 2026-05-07 21:49 | 34.00501 | -78.42457 | 12424 ft | 296 kts | 237° |
| 2026-05-07 21:49 | 33.99265 | -78.44402 | 11979 ft | 294 kts | 237° |
| 2026-05-07 21:50 | 33.98021 | -78.46358 | 11538 ft | 292 kts | 237° |
| 2026-05-07 21:50 | 33.96786 | -78.48297 | 11092 ft | 290 kts | 237° |
| 2026-05-07 21:50 | 33.95560 | -78.50223 | 10727 ft | 286 kts | 237° |
| 2026-05-07 21:50 | 33.94363 | -78.52105 | 10653 ft | 287 kts | 237° |
| 2026-05-07 21:51 | 33.93140 | -78.54035 | 10257 ft | 288 kts | 237° |
| 2026-05-07 21:51 | 33.91926 | -78.55948 | 9848 ft | 286 kts | 237° |
| 2026-05-07 21:51 | 33.90715 | -78.57848 | 9374 ft | 284 kts | 237° |
| 2026-05-07 21:51 | 33.89517 | -78.59726 | 8935 ft | 282 kts | 237° |
| 2026-05-07 21:52 | 33.88319 | -78.61600 | 8504 ft | 280 kts | 237° |
| 2026-05-07 21:52 | 33.87148 | -78.63432 | 8088 ft | 279 kts | 237° |
| 2026-05-07 21:52 | 33.85965 | -78.65282 | 7674 ft | 278 kts | 237° |
| 2026-05-07 21:52 | 33.84791 | -78.67119 | 7263 ft | 276 kts | 237° |
| 2026-05-07 21:53 | 33.83622 | -78.68949 | 6865 ft | 275 kts | 237° |
| 2026-05-07 21:53 | 33.82501 | -78.70806 | 6460 ft | 272 kts | 245° |
| 2026-05-07 21:53 | 33.81902 | -78.72920 | 6053 ft | 266 kts | 264° |
| 2026-05-07 21:53 | 33.81986 | -78.75123 | 5667 ft | 265 kts | 282° |
| 2026-05-07 21:54 | 33.82452 | -78.77229 | 5286 ft | 254 kts | 283° |
| 2026-05-07 21:54 | 33.82900 | -78.79224 | 4923 ft | 240 kts | 283° |
| 2026-05-07 21:54 | 33.83324 | -78.81116 | 4567 ft | 229 kts | 283° |
| 2026-05-07 21:54 | 33.83726 | -78.82912 | 4238 ft | 216 kts | 283° |
| 2026-05-07 21:55 | 33.84104 | -78.84610 | 4012 ft | 204 kts | 282° |
| 2026-05-07 21:55 | 33.84463 | -78.86217 | 3770 ft | 195 kts | 283° |
| 2026-05-07 21:55 | 33.84803 | -78.87751 | 3557 ft | 190 kts | 282° |
| 2026-05-07 21:55 | 33.85142 | -78.89288 | 3249 ft | 188 kts | 282° |
| 2026-05-07 21:56 | 33.85475 | -78.90795 | 2954 ft | 184 kts | 282° |
| 2026-05-07 21:56 | 33.85805 | -78.92282 | 2716 ft | 184 kts | 282° |
| 2026-05-07 21:56 | 33.86108 | -78.93768 | 2571 ft | 182 kts | 275° |
| 2026-05-07 21:56 | 33.85922 | -78.95243 | 2471 ft | 178 kts | 246° |
| 2026-05-07 21:57 | 33.85109 | -78.96367 | 2372 ft | 185 kts | 217° |
| 2026-05-07 21:57 | 33.83851 | -78.96779 | 2300 ft | 198 kts | 182° |
| 2026-05-07 21:57 | 33.82466 | -78.96479 | 2238 ft | 204 kts | 175° |
| 2026-05-07 21:57 | 33.81100 | -78.96123 | 2191 ft | 203 kts | 175° |
| 2026-05-07 21:58 | 33.79772 | -78.95780 | 2059 ft | 185 kts | 177° |
| 2026-05-07 21:58 | 33.78569 | -78.95476 | 1864 ft | 168 kts | 176° |
| 2026-05-07 21:58 | 33.77470 | -78.95200 | 1656 ft | 156 kts | 177° |
| 2026-05-07 21:58 | 33.76422 | -78.94940 | 1457 ft | 152 kts | 177° |
| 2026-05-07 21:59 | 33.75389 | -78.94680 | 1223 ft | 150 kts | 177° |
| 2026-05-07 21:59 | 33.74373 | -78.94423 | 1023 ft | 147 kts | 174° |
| 2026-05-07 21:59 | 33.73360 | -78.94181 | 828 ft | 148 kts | 174° |
| 2026-05-07 21:59 | 33.72349 | -78.93930 | 689 ft | 148 kts | 177° |
| 2026-05-07 22:00 | 33.71344 | -78.93679 | 480 ft | 147 kts | 174° |
| 2026-05-07 22:00 | 33.70381 | -78.93432 | 301 ft | 140 kts | 174° |
| 2026-05-07 22:00 | 33.69409 | -78.93190 | 102 ft | 143 kts | 172° |
| 2026-05-07 22:00 | 33.68486 | -78.92968 | 33 ft | 120 kts | 164° |
| 2026-05-07 22:01 | 33.67905 | -78.92816 | 33 ft | 43 kts | 168° |
| 2026-05-07 22:01 | 33.67648 | -78.92735 | 32 ft | 38 kts | 155° |
| 2026-05-07 22:01 | 33.67526 | -78.92621 | 30 ft | 13 kts | 138° |
| 2026-05-07 22:01 | 33.67460 | -78.92547 | 32 ft | 9 kts | 128° |
| 2026-05-07 22:02 | 33.67450 | -78.92524 | 32 ft | 0 kts | 110° |